sensor_id;sensor_type;location;lat;lon;timestamp;P1;durP1;ratioP1;P2;durP2;ratioP2
55718;SDS011;41623;46.104;19.656;2022-11-13T00:03:35;19.30;;;10.68;;
55718;SDS011;41623;46.104;19.656;2022-11-13T00:06:01;27.95;;;11.10;;
55718;SDS011;41623;46.104;19.656;2022-11-13T00:08:27;26.77;;;11.82;;
55718;SDS011;41623;46.104;19.656;2022-11-13T00:11:00;23.40;;;11.07;;
55718;SDS011;41623;46.104;19.656;2022-11-13T00:13:26;21.70;;;9.30;;
55718;SDS011;41623;46.104;19.656;2022-11-13T00:15:57;22.70;;;9.27;;
55718;SDS011;41623;46.104;19.656;2022-11-13T00:18:23;23.20;;;9.25;;
55718;SDS011;41623;46.104;19.656;2022-11-13T00:20:49;21.60;;;9.60;;
55718;SDS011;41623;46.104;19.656;2022-11-13T00:23:15;21.17;;;5.95;;
55718;SDS011;41623;46.104;19.656;2022-11-13T00:25:41;26.63;;;9.30;;
55718;SDS011;41623;46.104;19.656;2022-11-13T00:28:07;18.67;;;8.02;;
55718;SDS011;41623;46.104;19.656;2022-11-13T00:30:33;17.10;;;7.70;;
55718;SDS011;41623;46.104;19.656;2022-11-13T00:33:00;24.88;;;8.50;;
55718;SDS011;41623;46.104;19.656;2022-11-13T00:35:26;15.90;;;8.52;;
55718;SDS011;41623;46.104;19.656;2022-11-13T00:37:52;21.20;;;9.27;;
55718;SDS011;41623;46.104;19.656;2022-11-13T00:40:19;19.88;;;7.80;;
55718;SDS011;41623;46.104;19.656;2022-11-13T00:42:45;18.52;;;7.45;;
55718;SDS011;41623;46.104;19.656;2022-11-13T00:45:11;16.88;;;8.60;;
55718;SDS011;41623;46.104;19.656;2022-11-13T00:47:38;22.23;;;8.90;;
55718;SDS011;41623;46.104;19.656;2022-11-13T00:50:04;27.48;;;9.65;;
55718;SDS011;41623;46.104;19.656;2022-11-13T00:52:30;23.10;;;9.18;;
55718;SDS011;41623;46.104;19.656;2022-11-13T00:54:56;17.30;;;7.93;;
55718;SDS011;41623;46.104;19.656;2022-11-13T00:57:22;13.90;;;8.30;;
55718;SDS011;41623;46.104;19.656;2022-11-13T00:59:48;21.05;;;9.38;;
55718;SDS011;41623;46.104;19.656;2022-11-13T01:02:14;25.20;;;10.27;;
55718;SDS011;41623;46.104;19.656;2022-11-13T01:04:41;27.17;;;12.40;;
55718;SDS011;41623;46.104;19.656;2022-11-13T01:07:07;18.33;;;9.32;;
55718;SDS011;41623;46.104;19.656;2022-11-13T01:09:33;24.17;;;9.73;;
55718;SDS011;41623;46.104;19.656;2022-11-13T01:11:59;30.38;;;11.48;;
55718;SDS011;41623;46.104;19.656;2022-11-13T01:14:25;22.55;;;10.98;;
55718;SDS011;41623;46.104;19.656;2022-11-13T01:16:51;19.25;;;9.75;;
55718;SDS011;41623;46.104;19.656;2022-11-13T01:19:17;29.58;;;11.18;;
55718;SDS011;41623;46.104;19.656;2022-11-13T01:21:43;23.65;;;12.60;;
55718;SDS011;41623;46.104;19.656;2022-11-13T01:24:09;29.60;;;10.60;;
55718;SDS011;41623;46.104;19.656;2022-11-13T01:26:36;31.05;;;12.38;;
55718;SDS011;41623;46.104;19.656;2022-11-13T01:29:02;22.52;;;9.07;;
55718;SDS011;41623;46.104;19.656;2022-11-13T01:31:28;26.48;;;11.88;;
55718;SDS011;41623;46.104;19.656;2022-11-13T01:33:55;28.17;;;12.15;;
55718;SDS011;41623;46.104;19.656;2022-11-13T01:36:22;25.55;;;11.27;;
55718;SDS011;41623;46.104;19.656;2022-11-13T01:38:49;21.23;;;9.85;;
55718;SDS011;41623;46.104;19.656;2022-11-13T01:41:18;34.55;;;12.43;;
55718;SDS011;41623;46.104;19.656;2022-11-13T01:43:45;24.13;;;10.55;;
55718;SDS011;41623;46.104;19.656;2022-11-13T01:46:12;26.25;;;10.45;;
55718;SDS011;41623;46.104;19.656;2022-11-13T01:48:53;27.23;;;12.55;;
55718;SDS011;41623;46.104;19.656;2022-11-13T01:51:33;30.08;;;11.18;;
55718;SDS011;41623;46.104;19.656;2022-11-13T01:54:00;18.35;;;9.75;;
55718;SDS011;41623;46.104;19.656;2022-11-13T01:56:27;26.90;;;11.55;;
55718;SDS011;41623;46.104;19.656;2022-11-13T01:58:58;27.30;;;11.73;;
55718;SDS011;41623;46.104;19.656;2022-11-13T02:01:26;22.35;;;9.45;;
55718;SDS011;41623;46.104;19.656;2022-11-13T02:03:52;21.75;;;10.88;;
55718;SDS011;41623;46.104;19.656;2022-11-13T02:06:18;17.30;;;8.13;;
55718;SDS011;41623;46.104;19.656;2022-11-13T02:08:45;21.92;;;8.52;;
55718;SDS011;41623;46.104;19.656;2022-11-13T02:11:12;24.65;;;9.02;;
55718;SDS011;41623;46.104;19.656;2022-11-13T02:13:38;23.10;;;8.70;;
55718;SDS011;41623;46.104;19.656;2022-11-13T02:16:05;18.90;;;8.73;;
55718;SDS011;41623;46.104;19.656;2022-11-13T02:18:31;21.13;;;8.75;;
55718;SDS011;41623;46.104;19.656;2022-11-13T02:26:13;19.40;;;8.63;;
55718;SDS011;41623;46.104;19.656;2022-11-13T02:28:40;14.93;;;7.75;;
55718;SDS011;41623;46.104;19.656;2022-11-13T02:31:07;15.57;;;7.18;;
55718;SDS011;41623;46.104;19.656;2022-11-13T02:33:33;19.67;;;8.13;;
55718;SDS011;41623;46.104;19.656;2022-11-13T02:35:59;25.23;;;8.63;;
55718;SDS011;41623;46.104;19.656;2022-11-13T02:38:25;15.13;;;7.45;;
55718;SDS011;41623;46.104;19.656;2022-11-13T02:40:51;20.73;;;8.10;;
55718;SDS011;41623;46.104;19.656;2022-11-13T02:43:17;19.67;;;7.78;;
55718;SDS011;41623;46.104;19.656;2022-11-13T02:45:43;19.85;;;7.68;;
55718;SDS011;41623;46.104;19.656;2022-11-13T02:48:09;13.45;;;6.03;;
55718;SDS011;41623;46.104;19.656;2022-11-13T02:50:36;13.93;;;5.55;;
55718;SDS011;41623;46.104;19.656;2022-11-13T02:53:02;16.60;;;7.00;;
55718;SDS011;41623;46.104;19.656;2022-11-13T02:55:28;8.43;;;4.70;;
55718;SDS011;41623;46.104;19.656;2022-11-13T02:57:55;15.07;;;5.45;;
55718;SDS011;41623;46.104;19.656;2022-11-13T03:00:21;17.58;;;5.68;;
55718;SDS011;41623;46.104;19.656;2022-11-13T03:02:47;19.63;;;7.32;;
55718;SDS011;41623;46.104;19.656;2022-11-13T03:05:13;16.25;;;7.63;;
55718;SDS011;41623;46.104;19.656;2022-11-13T03:07:39;13.95;;;6.07;;
55718;SDS011;41623;46.104;19.656;2022-11-13T03:10:06;13.98;;;6.93;;
55718;SDS011;41623;46.104;19.656;2022-11-13T03:12:32;12.75;;;6.63;;
55718;SDS011;41623;46.104;19.656;2022-11-13T03:14:58;21.10;;;7.55;;
55718;SDS011;41623;46.104;19.656;2022-11-13T03:17:24;21.15;;;7.00;;
55718;SDS011;41623;46.104;19.656;2022-11-13T03:19:50;14.45;;;6.57;;
55718;SDS011;41623;46.104;19.656;2022-11-13T03:22:16;12.98;;;6.50;;
55718;SDS011;41623;46.104;19.656;2022-11-13T03:24:42;12.52;;;6.47;;
55718;SDS011;41623;46.104;19.656;2022-11-13T03:27:08;15.55;;;7.80;;
55718;SDS011;41623;46.104;19.656;2022-11-13T03:29:35;20.08;;;8.07;;
55718;SDS011;41623;46.104;19.656;2022-11-13T03:32:01;22.20;;;8.02;;
55718;SDS011;41623;46.104;19.656;2022-11-13T03:34:27;16.02;;;6.10;;
55718;SDS011;41623;46.104;19.656;2022-11-13T03:36:53;15.00;;;7.30;;
55718;SDS011;41623;46.104;19.656;2022-11-13T03:39:19;15.27;;;6.38;;
55718;SDS011;41623;46.104;19.656;2022-11-13T03:41:46;15.38;;;7.00;;
55718;SDS011;41623;46.104;19.656;2022-11-13T03:44:12;15.63;;;6.55;;
55718;SDS011;41623;46.104;19.656;2022-11-13T03:46:38;17.27;;;6.78;;
55718;SDS011;41623;46.104;19.656;2022-11-13T03:49:04;16.75;;;5.97;;
55718;SDS011;41623;46.104;19.656;2022-11-13T03:51:30;14.27;;;6.57;;
55718;SDS011;41623;46.104;19.656;2022-11-13T03:53:56;14.98;;;6.22;;
55718;SDS011;41623;46.104;19.656;2022-11-13T03:56:24;13.60;;;4.82;;
55718;SDS011;41623;46.104;19.656;2022-11-13T03:58:50;10.60;;;5.55;;
55718;SDS011;41623;46.104;19.656;2022-11-13T04:01:16;16.85;;;6.50;;
55718;SDS011;41623;46.104;19.656;2022-11-13T04:03:42;16.38;;;7.85;;
55718;SDS011;41623;46.104;19.656;2022-11-13T04:06:08;15.32;;;6.65;;
55718;SDS011;41623;46.104;19.656;2022-11-13T04:08:34;11.15;;;5.70;;
55718;SDS011;41623;46.104;19.656;2022-11-13T04:11:10;15.68;;;7.38;;
55718;SDS011;41623;46.104;19.656;2022-11-13T04:13:37;15.05;;;6.25;;
55718;SDS011;41623;46.104;19.656;2022-11-13T04:16:03;13.90;;;5.22;;
55718;SDS011;41623;46.104;19.656;2022-11-13T04:18:29;13.55;;;6.22;;
55718;SDS011;41623;46.104;19.656;2022-11-13T04:20:59;21.40;;;8.43;;
55718;SDS011;41623;46.104;19.656;2022-11-13T04:23:25;13.77;;;7.95;;
55718;SDS011;41623;46.104;19.656;2022-11-13T04:25:51;23.38;;;9.07;;
55718;SDS011;41623;46.104;19.656;2022-11-13T04:28:17;15.30;;;7.10;;
55718;SDS011;41623;46.104;19.656;2022-11-13T04:30:43;17.80;;;7.95;;
55718;SDS011;41623;46.104;19.656;2022-11-13T04:33:09;15.20;;;6.43;;
55718;SDS011;41623;46.104;19.656;2022-11-13T04:35:35;16.50;;;7.85;;
55718;SDS011;41623;46.104;19.656;2022-11-13T04:38:01;17.88;;;8.00;;
55718;SDS011;41623;46.104;19.656;2022-11-13T04:40:27;12.25;;;7.25;;
55718;SDS011;41623;46.104;19.656;2022-11-13T04:42:53;10.77;;;6.45;;
55718;SDS011;41623;46.104;19.656;2022-11-13T04:45:21;10.02;;;5.93;;
55718;SDS011;41623;46.104;19.656;2022-11-13T04:47:47;11.35;;;6.43;;
55718;SDS011;41623;46.104;19.656;2022-11-13T04:50:14;13.75;;;5.80;;
55718;SDS011;41623;46.104;19.656;2022-11-13T04:52:40;13.30;;;6.60;;
55718;SDS011;41623;46.104;19.656;2022-11-13T04:55:06;15.63;;;6.55;;
55718;SDS011;41623;46.104;19.656;2022-11-13T04:57:33;15.98;;;6.50;;
55718;SDS011;41623;46.104;19.656;2022-11-13T04:59:59;14.15;;;6.63;;
55718;SDS011;41623;46.104;19.656;2022-11-13T05:02:25;13.05;;;6.82;;
55718;SDS011;41623;46.104;19.656;2022-11-13T05:04:51;10.05;;;5.90;;
55718;SDS011;41623;46.104;19.656;2022-11-13T05:07:17;10.95;;;5.72;;
55718;SDS011;41623;46.104;19.656;2022-11-13T05:09:43;13.00;;;5.93;;
55718;SDS011;41623;46.104;19.656;2022-11-13T05:12:09;9.82;;;5.07;;
55718;SDS011;41623;46.104;19.656;2022-11-13T05:14:36;7.80;;;4.25;;
55718;SDS011;41623;46.104;19.656;2022-11-13T05:17:03;7.15;;;4.13;;
55718;SDS011;41623;46.104;19.656;2022-11-13T05:19:30;10.68;;;4.93;;
55718;SDS011;41623;46.104;19.656;2022-11-13T05:21:56;8.55;;;5.72;;
55718;SDS011;41623;46.104;19.656;2022-11-13T05:24:22;12.40;;;4.80;;
55718;SDS011;41623;46.104;19.656;2022-11-13T05:26:49;12.45;;;5.90;;
55718;SDS011;41623;46.104;19.656;2022-11-13T05:29:15;12.40;;;4.95;;
55718;SDS011;41623;46.104;19.656;2022-11-13T05:31:41;14.40;;;6.50;;
55718;SDS011;41623;46.104;19.656;2022-11-13T05:34:07;8.82;;;4.00;;
55718;SDS011;41623;46.104;19.656;2022-11-13T05:36:33;8.23;;;3.95;;
55718;SDS011;41623;46.104;19.656;2022-11-13T05:38:59;12.25;;;4.55;;
55718;SDS011;41623;46.104;19.656;2022-11-13T05:41:25;9.80;;;5.32;;
55718;SDS011;41623;46.104;19.656;2022-11-13T05:43:52;12.90;;;5.00;;
55718;SDS011;41623;46.104;19.656;2022-11-13T05:46:19;7.05;;;4.10;;
55718;SDS011;41623;46.104;19.656;2022-11-13T05:48:46;9.82;;;4.65;;
55718;SDS011;41623;46.104;19.656;2022-11-13T05:51:19;10.13;;;4.85;;
55718;SDS011;41623;46.104;19.656;2022-11-13T05:53:45;8.52;;;4.15;;
55718;SDS011;41623;46.104;19.656;2022-11-13T05:56:13;9.55;;;3.75;;
55718;SDS011;41623;46.104;19.656;2022-11-13T05:58:40;11.95;;;4.63;;
55718;SDS011;41623;46.104;19.656;2022-11-13T06:01:10;7.13;;;3.42;;
55718;SDS011;41623;46.104;19.656;2022-11-13T06:03:36;8.18;;;3.45;;
55718;SDS011;41623;46.104;19.656;2022-11-13T06:06:03;8.77;;;3.88;;
55718;SDS011;41623;46.104;19.656;2022-11-13T06:08:29;6.70;;;3.30;;
55718;SDS011;41623;46.104;19.656;2022-11-13T06:10:59;5.03;;;3.22;;
55718;SDS011;41623;46.104;19.656;2022-11-13T06:13:25;9.98;;;3.50;;
55718;SDS011;41623;46.104;19.656;2022-11-13T06:15:51;9.55;;;3.22;;
55718;SDS011;41623;46.104;19.656;2022-11-13T06:18:21;5.72;;;3.10;;
55718;SDS011;41623;46.104;19.656;2022-11-13T06:20:47;9.13;;;4.78;;
55718;SDS011;41623;46.104;19.656;2022-11-13T06:23:14;9.82;;;4.45;;
55718;SDS011;41623;46.104;19.656;2022-11-13T06:25:40;10.02;;;5.75;;
55718;SDS011;41623;46.104;19.656;2022-11-13T06:28:06;11.30;;;6.22;;
55718;SDS011;41623;46.104;19.656;2022-11-13T06:30:32;8.02;;;4.22;;
55718;SDS011;41623;46.104;19.656;2022-11-13T06:32:58;8.40;;;4.95;;
55718;SDS011;41623;46.104;19.656;2022-11-13T06:35:24;8.95;;;4.68;;
55718;SDS011;41623;46.104;19.656;2022-11-13T06:37:50;6.68;;;3.95;;
55718;SDS011;41623;46.104;19.656;2022-11-13T06:40:19;17.25;;;5.32;;
55718;SDS011;41623;46.104;19.656;2022-11-13T06:42:45;8.65;;;5.28;;
55718;SDS011;41623;46.104;19.656;2022-11-13T06:45:11;10.20;;;3.95;;
55718;SDS011;41623;46.104;19.656;2022-11-13T06:47:37;8.15;;;4.85;;
55718;SDS011;41623;46.104;19.656;2022-11-13T06:50:03;13.00;;;5.70;;
55718;SDS011;41623;46.104;19.656;2022-11-13T06:52:30;7.30;;;3.85;;
55718;SDS011;41623;46.104;19.656;2022-11-13T06:54:56;8.07;;;5.20;;
55718;SDS011;41623;46.104;19.656;2022-11-13T06:57:24;9.52;;;4.30;;
55718;SDS011;41623;46.104;19.656;2022-11-13T06:59:50;18.58;;;6.18;;
55718;SDS011;41623;46.104;19.656;2022-11-13T07:02:16;11.98;;;4.60;;
55718;SDS011;41623;46.104;19.656;2022-11-13T07:04:42;10.30;;;5.13;;
55718;SDS011;41623;46.104;19.656;2022-11-13T07:07:08;10.00;;;5.03;;
55718;SDS011;41623;46.104;19.656;2022-11-13T07:09:34;12.98;;;5.60;;
55718;SDS011;41623;46.104;19.656;2022-11-13T07:12:00;11.05;;;5.10;;
55718;SDS011;41623;46.104;19.656;2022-11-13T07:14:26;11.20;;;4.60;;
55718;SDS011;41623;46.104;19.656;2022-11-13T07:16:52;16.55;;;5.55;;
55718;SDS011;41623;46.104;19.656;2022-11-13T07:19:18;8.88;;;4.78;;
55718;SDS011;41623;46.104;19.656;2022-11-13T07:21:44;10.07;;;4.55;;
55718;SDS011;41623;46.104;19.656;2022-11-13T07:24:10;8.77;;;4.50;;
55718;SDS011;41623;46.104;19.656;2022-11-13T07:26:36;8.32;;;4.20;;
55718;SDS011;41623;46.104;19.656;2022-11-13T07:29:02;8.45;;;4.82;;
55718;SDS011;41623;46.104;19.656;2022-11-13T07:31:28;7.90;;;4.28;;
55718;SDS011;41623;46.104;19.656;2022-11-13T07:33:54;8.80;;;4.60;;
55718;SDS011;41623;46.104;19.656;2022-11-13T07:36:21;19.42;;;5.55;;
55718;SDS011;41623;46.104;19.656;2022-11-13T07:38:47;8.43;;;3.25;;
55718;SDS011;41623;46.104;19.656;2022-11-13T07:41:13;12.27;;;5.15;;
55718;SDS011;41623;46.104;19.656;2022-11-13T07:43:39;12.20;;;5.80;;
55718;SDS011;41623;46.104;19.656;2022-11-13T07:46:05;9.13;;;4.80;;
55718;SDS011;41623;46.104;19.656;2022-11-13T07:48:31;5.38;;;4.28;;
55718;SDS011;41623;46.104;19.656;2022-11-13T07:51:00;7.93;;;3.90;;
55718;SDS011;41623;46.104;19.656;2022-11-13T07:53:27;6.65;;;3.85;;
55718;SDS011;41623;46.104;19.656;2022-11-13T07:55:53;5.93;;;3.70;;
55718;SDS011;41623;46.104;19.656;2022-11-13T07:58:19;8.07;;;3.35;;
55718;SDS011;41623;46.104;19.656;2022-11-13T08:00:45;9.35;;;4.25;;
55718;SDS011;41623;46.104;19.656;2022-11-13T08:03:12;6.03;;;3.80;;
55718;SDS011;41623;46.104;19.656;2022-11-13T08:05:39;7.25;;;4.47;;
55718;SDS011;41623;46.104;19.656;2022-11-13T08:08:05;5.50;;;3.05;;
55718;SDS011;41623;46.104;19.656;2022-11-13T08:10:31;7.05;;;4.10;;
55718;SDS011;41623;46.104;19.656;2022-11-13T08:13:02;10.85;;;4.38;;
55718;SDS011;41623;46.104;19.656;2022-11-13T08:15:28;9.95;;;4.03;;
55718;SDS011;41623;46.104;19.656;2022-11-13T08:17:55;12.65;;;5.18;;
55718;SDS011;41623;46.104;19.656;2022-11-13T08:20:22;7.85;;;3.58;;
55718;SDS011;41623;46.104;19.656;2022-11-13T08:22:48;9.30;;;3.72;;
55718;SDS011;41623;46.104;19.656;2022-11-13T08:25:14;6.47;;;3.45;;
55718;SDS011;41623;46.104;19.656;2022-11-13T08:27:40;6.35;;;3.72;;
55718;SDS011;41623;46.104;19.656;2022-11-13T08:30:07;5.00;;;3.10;;
55718;SDS011;41623;46.104;19.656;2022-11-13T08:32:33;8.15;;;3.80;;
55718;SDS011;41623;46.104;19.656;2022-11-13T08:34:59;7.40;;;3.33;;
55718;SDS011;41623;46.104;19.656;2022-11-13T08:37:25;3.88;;;3.15;;
55718;SDS011;41623;46.104;19.656;2022-11-13T08:39:51;7.47;;;3.53;;
55718;SDS011;41623;46.104;19.656;2022-11-13T08:42:17;6.97;;;3.45;;
55718;SDS011;41623;46.104;19.656;2022-11-13T08:44:43;7.22;;;4.40;;
55718;SDS011;41623;46.104;19.656;2022-11-13T08:47:10;4.30;;;2.58;;
55718;SDS011;41623;46.104;19.656;2022-11-13T08:49:36;6.80;;;2.90;;
55718;SDS011;41623;46.104;19.656;2022-11-13T08:52:02;6.32;;;3.28;;
55718;SDS011;41623;46.104;19.656;2022-11-13T08:54:28;8.25;;;3.90;;
55718;SDS011;41623;46.104;19.656;2022-11-13T08:56:54;12.93;;;3.60;;
55718;SDS011;41623;46.104;19.656;2022-11-13T08:59:20;11.80;;;4.68;;
55718;SDS011;41623;46.104;19.656;2022-11-13T09:01:47;7.88;;;3.85;;
55718;SDS011;41623;46.104;19.656;2022-11-13T09:04:13;7.93;;;4.30;;
55718;SDS011;41623;46.104;19.656;2022-11-13T09:06:39;10.10;;;3.45;;
55718;SDS011;41623;46.104;19.656;2022-11-13T09:09:05;7.60;;;3.17;;
55718;SDS011;41623;46.104;19.656;2022-11-13T09:11:32;5.78;;;3.30;;
55718;SDS011;41623;46.104;19.656;2022-11-13T09:13:58;5.45;;;2.60;;
55718;SDS011;41623;46.104;19.656;2022-11-13T09:16:24;5.68;;;2.97;;
55718;SDS011;41623;46.104;19.656;2022-11-13T09:18:51;13.07;;;3.33;;
55718;SDS011;41623;46.104;19.656;2022-11-13T09:21:17;6.00;;;3.65;;
55718;SDS011;41623;46.104;19.656;2022-11-13T09:23:43;5.97;;;3.10;;
55718;SDS011;41623;46.104;19.656;2022-11-13T09:26:09;10.18;;;3.70;;
55718;SDS011;41623;46.104;19.656;2022-11-13T09:28:36;5.50;;;3.53;;
55718;SDS011;41623;46.104;19.656;2022-11-13T09:31:03;9.65;;;4.10;;
55718;SDS011;41623;46.104;19.656;2022-11-13T09:33:29;7.85;;;3.03;;
55718;SDS011;41623;46.104;19.656;2022-11-13T09:35:55;7.10;;;3.70;;
55718;SDS011;41623;46.104;19.656;2022-11-13T09:38:21;10.75;;;3.88;;
55718;SDS011;41623;46.104;19.656;2022-11-13T09:48:58;10.05;;;5.38;;
55718;SDS011;41623;46.104;19.656;2022-11-13T09:51:27;13.43;;;3.95;;
55718;SDS011;41623;46.104;19.656;2022-11-13T09:53:54;9.57;;;4.78;;
55718;SDS011;41623;46.104;19.656;2022-11-13T09:56:27;10.25;;;3.85;;
55718;SDS011;41623;46.104;19.656;2022-11-13T10:01:25;9.07;;;3.45;;
55718;SDS011;41623;46.104;19.656;2022-11-13T10:03:56;5.45;;;3.65;;
55718;SDS011;41623;46.104;19.656;2022-11-13T10:08:54;12.02;;;4.10;;
55718;SDS011;41623;46.104;19.656;2022-11-13T10:13:50;5.93;;;3.47;;
55718;SDS011;41623;46.104;19.656;2022-11-13T10:16:26;8.25;;;3.35;;
55718;SDS011;41623;46.104;19.656;2022-11-13T10:18:55;5.93;;;3.47;;
55718;SDS011;41623;46.104;19.656;2022-11-13T10:21:32;5.70;;;3.47;;
55718;SDS011;41623;46.104;19.656;2022-11-13T10:24:01;8.82;;;2.97;;
55718;SDS011;41623;46.104;19.656;2022-11-13T10:26:29;8.32;;;3.47;;
55718;SDS011;41623;46.104;19.656;2022-11-13T10:28:59;8.77;;;4.10;;
55718;SDS011;41623;46.104;19.656;2022-11-13T10:34:25;7.10;;;3.67;;
55718;SDS011;41623;46.104;19.656;2022-11-13T10:37:01;6.82;;;3.47;;
55718;SDS011;41623;46.104;19.656;2022-11-13T10:39:39;6.05;;;2.53;;
55718;SDS011;41623;46.104;19.656;2022-11-13T10:42:17;7.32;;;2.92;;
55718;SDS011;41623;46.104;19.656;2022-11-13T10:44:51;5.35;;;3.33;;
55718;SDS011;41623;46.104;19.656;2022-11-13T10:47:19;4.07;;;2.50;;
55718;SDS011;41623;46.104;19.656;2022-11-13T10:49:45;8.77;;;3.47;;
55718;SDS011;41623;46.104;19.656;2022-11-13T10:52:15;7.43;;;3.35;;
55718;SDS011;41623;46.104;19.656;2022-11-13T10:54:42;7.28;;;3.72;;
55718;SDS011;41623;46.104;19.656;2022-11-13T10:57:26;3.75;;;2.33;;
55718;SDS011;41623;46.104;19.656;2022-11-13T10:59:52;2.53;;;1.95;;
55718;SDS011;41623;46.104;19.656;2022-11-13T11:02:20;6.50;;;2.45;;
55718;SDS011;41623;46.104;19.656;2022-11-13T11:04:47;3.05;;;2.10;;
55718;SDS011;41623;46.104;19.656;2022-11-13T11:07:20;7.15;;;3.60;;
55718;SDS011;41623;46.104;19.656;2022-11-13T11:09:47;6.07;;;3.10;;
55718;SDS011;41623;46.104;19.656;2022-11-13T11:12:15;10.82;;;4.07;;
55718;SDS011;41623;46.104;19.656;2022-11-13T11:19:57;3.00;;;1.75;;
55718;SDS011;41623;46.104;19.656;2022-11-13T11:22:26;6.57;;;2.78;;
55718;SDS011;41623;46.104;19.656;2022-11-13T11:25:03;5.70;;;2.95;;
55718;SDS011;41623;46.104;19.656;2022-11-13T11:37:38;3.53;;;2.45;;
55718;SDS011;41623;46.104;19.656;2022-11-13T11:40:14;4.03;;;2.00;;
55718;SDS011;41623;46.104;19.656;2022-11-13T11:43:17;4.13;;;2.42;;
55718;SDS011;41623;46.104;19.656;2022-11-13T11:45:39;9.90;;;3.35;;
55718;SDS011;41623;46.104;19.656;2022-11-13T11:48:09;6.93;;;2.63;;
55718;SDS011;41623;46.104;19.656;2022-11-13T11:53:16;2.75;;;2.03;;
55718;SDS011;41623;46.104;19.656;2022-11-13T11:58:34;6.57;;;2.58;;
55718;SDS011;41623;46.104;19.656;2022-11-13T12:08:57;5.68;;;2.70;;
55718;SDS011;41623;46.104;19.656;2022-11-13T12:11:31;15.95;;;2.40;;
55718;SDS011;41623;46.104;19.656;2022-11-13T12:19:00;5.60;;;2.30;;
55718;SDS011;41623;46.104;19.656;2022-11-13T12:24:02;3.42;;;2.17;;
55718;SDS011;41623;46.104;19.656;2022-11-13T12:26:34;3.08;;;1.85;;
55718;SDS011;41623;46.104;19.656;2022-11-13T12:29:09;4.93;;;2.72;;
55718;SDS011;41623;46.104;19.656;2022-11-13T12:31:47;10.02;;;3.70;;
55718;SDS011;41623;46.104;19.656;2022-11-13T12:36:47;3.78;;;2.95;;
55718;SDS011;41623;46.104;19.656;2022-11-13T12:46:47;8.20;;;3.08;;
55718;SDS011;41623;46.104;19.656;2022-11-13T12:49:14;4.68;;;3.35;;
55718;SDS011;41623;46.104;19.656;2022-11-13T12:51:51;7.72;;;2.65;;
55718;SDS011;41623;46.104;19.656;2022-11-13T12:54:23;3.88;;;2.15;;
55718;SDS011;41623;46.104;19.656;2022-11-13T12:56:49;4.38;;;2.83;;
55718;SDS011;41623;46.104;19.656;2022-11-13T13:01:47;6.35;;;4.00;;
55718;SDS011;41623;46.104;19.656;2022-11-13T13:07:07;6.90;;;2.78;;
55718;SDS011;41623;46.104;19.656;2022-11-13T13:12:25;1.80;;;1.42;;
55718;SDS011;41623;46.104;19.656;2022-11-13T13:17:41;6.65;;;2.97;;
55718;SDS011;41623;46.104;19.656;2022-11-13T13:22:36;4.47;;;2.13;;
55718;SDS011;41623;46.104;19.656;2022-11-13T13:25:03;7.65;;;2.85;;
55718;SDS011;41623;46.104;19.656;2022-11-13T13:27:36;4.43;;;2.65;;
55718;SDS011;41623;46.104;19.656;2022-11-13T13:30:19;5.82;;;2.95;;
55718;SDS011;41623;46.104;19.656;2022-11-13T13:35:46;6.68;;;2.55;;
55718;SDS011;41623;46.104;19.656;2022-11-13T13:40:47;7.43;;;3.95;;
55718;SDS011;41623;46.104;19.656;2022-11-13T13:45:45;1.88;;;1.63;;
55718;SDS011;41623;46.104;19.656;2022-11-13T13:48:14;2.63;;;2.22;;
55718;SDS011;41623;46.104;19.656;2022-11-13T13:50:46;4.03;;;2.50;;
55718;SDS011;41623;46.104;19.656;2022-11-13T13:53:15;3.95;;;2.35;;
55718;SDS011;41623;46.104;19.656;2022-11-13T13:55:44;5.22;;;2.75;;
55718;SDS011;41623;46.104;19.656;2022-11-13T13:58:11;3.10;;;2.08;;
55718;SDS011;41623;46.104;19.656;2022-11-13T14:00:38;5.22;;;3.20;;
55718;SDS011;41623;46.104;19.656;2022-11-13T14:03:13;7.25;;;3.28;;
55718;SDS011;41623;46.104;19.656;2022-11-13T14:05:41;5.75;;;2.75;;
55718;SDS011;41623;46.104;19.656;2022-11-13T14:11:13;17.23;;;2.60;;
55718;SDS011;41623;46.104;19.656;2022-11-13T14:13:41;3.22;;;2.42;;
55718;SDS011;41623;46.104;19.656;2022-11-13T14:16:07;6.22;;;3.83;;
55718;SDS011;41623;46.104;19.656;2022-11-13T14:18:33;7.00;;;3.60;;
55718;SDS011;41623;46.104;19.656;2022-11-13T14:21:00;10.02;;;3.83;;
55718;SDS011;41623;46.104;19.656;2022-11-13T14:23:31;9.75;;;3.40;;
55718;SDS011;41623;46.104;19.656;2022-11-13T14:25:59;6.35;;;3.33;;
55718;SDS011;41623;46.104;19.656;2022-11-13T14:28:27;7.70;;;3.70;;
55718;SDS011;41623;46.104;19.656;2022-11-13T14:30:55;7.30;;;3.33;;
55718;SDS011;41623;46.104;19.656;2022-11-13T14:33:31;7.28;;;3.60;;
55718;SDS011;41623;46.104;19.656;2022-11-13T14:35:59;8.77;;;3.38;;
55718;SDS011;41623;46.104;19.656;2022-11-13T14:38:26;7.43;;;2.95;;
55718;SDS011;41623;46.104;19.656;2022-11-13T14:40:53;5.47;;;3.33;;
55718;SDS011;41623;46.104;19.656;2022-11-13T14:43:24;8.95;;;3.85;;
55718;SDS011;41623;46.104;19.656;2022-11-13T14:45:56;17.00;;;4.32;;
55718;SDS011;41623;46.104;19.656;2022-11-13T14:48:26;8.55;;;3.88;;
55718;SDS011;41623;46.104;19.656;2022-11-13T14:50:59;7.70;;;3.30;;
55718;SDS011;41623;46.104;19.656;2022-11-13T14:55:53;8.38;;;4.20;;
55718;SDS011;41623;46.104;19.656;2022-11-13T14:58:27;8.60;;;5.80;;
55718;SDS011;41623;46.104;19.656;2022-11-13T15:00:53;7.35;;;3.97;;
55718;SDS011;41623;46.104;19.656;2022-11-13T15:03:21;10.38;;;4.75;;
55718;SDS011;41623;46.104;19.656;2022-11-13T15:05:48;9.63;;;5.35;;
55718;SDS011;41623;46.104;19.656;2022-11-13T15:08:14;10.15;;;4.80;;
55718;SDS011;41623;46.104;19.656;2022-11-13T15:10:40;11.95;;;4.47;;
55718;SDS011;41623;46.104;19.656;2022-11-13T15:13:15;10.02;;;5.10;;
55718;SDS011;41623;46.104;19.656;2022-11-13T15:15:41;11.15;;;5.60;;
55718;SDS011;41623;46.104;19.656;2022-11-13T15:18:09;14.07;;;4.95;;
55718;SDS011;41623;46.104;19.656;2022-11-13T15:20:38;9.40;;;4.75;;
55718;SDS011;41623;46.104;19.656;2022-11-13T15:23:07;10.18;;;5.55;;
55718;SDS011;41623;46.104;19.656;2022-11-13T15:25:34;11.85;;;5.15;;
55718;SDS011;41623;46.104;19.656;2022-11-13T15:28:00;11.85;;;6.15;;
55718;SDS011;41623;46.104;19.656;2022-11-13T15:30:27;17.85;;;5.65;;
55718;SDS011;41623;46.104;19.656;2022-11-13T15:32:53;25.65;;;6.85;;
55718;SDS011;41623;46.104;19.656;2022-11-13T15:35:21;13.05;;;6.15;;
55718;SDS011;41623;46.104;19.656;2022-11-13T15:37:47;17.98;;;5.25;;
55718;SDS011;41623;46.104;19.656;2022-11-13T15:40:14;11.13;;;5.78;;
55718;SDS011;41623;46.104;19.656;2022-11-13T15:42:41;15.43;;;6.55;;
55718;SDS011;41623;46.104;19.656;2022-11-13T15:45:12;18.77;;;7.40;;
55718;SDS011;41623;46.104;19.656;2022-11-13T15:47:38;21.52;;;9.48;;
55718;SDS011;41623;46.104;19.656;2022-11-13T15:50:04;27.45;;;10.25;;
55718;SDS011;41623;46.104;19.656;2022-11-13T15:52:31;20.38;;;9.13;;
55718;SDS011;41623;46.104;19.656;2022-11-13T15:55:00;22.58;;;9.15;;
55718;SDS011;41623;46.104;19.656;2022-11-13T15:57:27;21.13;;;10.10;;
55718;SDS011;41623;46.104;19.656;2022-11-13T15:59:54;21.30;;;9.40;;
55718;SDS011;41623;46.104;19.656;2022-11-13T16:02:20;21.70;;;9.50;;
55718;SDS011;41623;46.104;19.656;2022-11-13T16:04:47;20.17;;;9.50;;
55718;SDS011;41623;46.104;19.656;2022-11-13T16:07:15;19.27;;;9.30;;